Time;durP1;ratioP1;P1;durP2;ratioP2;P2;SDS_P1;SDS_P2;PMS_P1;PMS_P2;Temp;Humidity;BMP_temperature;BMP_pressure;BME280_temperature;BME280_humidity;BME280_pressure;Samples;Min_cycle;Max_cycle;Signal;HPM_P1;HPM_P2
2023/12/16 00:01:07;;;;;;;1.10;0.70;;;22.50;51.90;;;;;;4998344;28;20062;-66
2023/12/16 00:03:33;;;;;;;1.10;0.80;;;22.50;51.90;;;;;;4980831;28;20034;-66
2023/12/16 00:05:59;;;;;;;0.60;0.60;;;22.50;51.90;;;;;;4983802;28;20038;-67
2023/12/16 00:08:25;;;;;;;0.60;0.60;;;22.50;52.40;;;;;;4982911;28;20151;-66
2023/12/16 00:10:51;;;;;;;1.10;0.80;;;22.50;51.90;;;;;;4980985;28;20031;-66
2023/12/16 00:13:16;;;;;;;0.95;0.70;;;22.40;51.90;;;;;;4981601;28;20121;-66
2023/12/16 00:15:42;;;;;;;0.75;0.70;;;22.40;51.90;;;;;;4979703;28;20487;-66
2023/12/16 00:18:08;;;;;;;0.77;0.60;;;22.40;51.90;;;;;;4981048;28;20026;-66
2023/12/16 00:20:33;;;;;;;0.70;0.68;;;22.40;52.00;;;;;;4982007;28;20540;-66
2023/12/16 00:22:59;;;;;;;0.75;0.65;;;22.40;52.00;;;;;;4995417;28;20023;-66
2023/12/16 00:25:24;;;;;;;0.85;0.60;;;22.30;51.90;;;;;;4980893;28;20053;-66
2023/12/16 00:27:50;;;;;;;0.70;0.60;;;22.30;51.90;;;;;;4980395;28;20340;-68
2023/12/16 00:30:16;;;;;;;1.35;0.80;;;22.30;51.90;;;;;;4981733;28;20122;-67
2023/12/16 00:32:42;;;;;;;0.75;0.60;;;22.30;51.90;;;;;;4982095;28;20038;-68
2023/12/16 00:35:08;;;;;;;0.60;0.60;;;22.30;51.90;;;;;;4982653;28;20019;-67
2023/12/16 00:37:34;;;;;;;0.55;0.55;;;22.30;51.90;;;;;;4982431;28;20072;-66
2023/12/16 00:40:01;;;;;;;1.05;0.70;;;22.20;52.00;;;;;;4980156;28;20542;-67
2023/12/16 00:42:27;;;;;;;0.95;0.70;;;22.20;52.00;;;;;;4995453;28;20105;-68
2023/12/16 00:44:53;;;;;;;2.35;0.70;;;22.20;52.00;;;;;;4983413;28;20386;-69
2023/12/16 00:47:19;;;;;;;0.60;0.60;;;22.20;52.00;;;;;;4980213;28;20097;-69
2023/12/16 00:49:44;;;;;;;1.00;0.80;;;22.20;52.00;;;;;;4981487;28;20109;-69
2023/12/16 00:52:10;;;;;;;0.68;0.60;;;22.20;52.00;;;;;;4980239;28;20033;-68
2023/12/16 00:54:36;;;;;;;1.13;0.70;;;22.10;52.00;;;;;;4980209;28;20102;-69
2023/12/16 00:57:01;;;;;;;1.15;0.70;;;22.10;52.00;;;;;;4982668;28;20106;-69
2023/12/16 00:59:27;;;;;;;0.93;0.80;;;22.10;52.00;;;;;;4979803;28;20068;-68
2023/12/16 01:01:52;;;;;;;0.90;0.75;;;22.10;52.00;;;;;;4979647;28;20109;-68
2023/12/16 01:04:18;;;;;;;1.38;0.80;;;22.10;52.00;;;;;;4980547;28;20140;-68
2023/12/16 01:06:44;;;;;;;0.90;0.70;;;22.10;52.10;;;;;;4979507;28;20053;-68
2023/12/16 01:09:10;;;;;;;1.20;0.63;;;22.10;52.00;;;;;;4982737;28;20026;-69
2023/12/16 01:11:36;;;;;;;0.80;0.70;;;22.00;52.00;;;;;;4982586;28;20034;-69
2023/12/16 01:14:02;;;;;;;1.17;0.77;;;22.00;52.10;;;;;;4979190;28;20520;-69
2023/12/16 01:16:27;;;;;;;1.05;0.70;;;22.00;52.10;;;;;;4979559;28;20511;-69
2023/12/16 01:18:53;;;;;;;0.85;0.65;;;22.00;52.10;;;;;;4979689;28;20069;-68
2023/12/16 01:21:19;;;;;;;0.70;0.60;;;22.00;52.10;;;;;;4978454;28;20082;-69
2023/12/16 01:23:45;;;;;;;0.65;0.65;;;21.90;52.10;;;;;;4980141;28;20038;-69
2023/12/16 01:26:11;;;;;;;0.60;0.60;;;21.90;52.10;;;;;;4978356;28;20030;-69
2023/12/16 01:28:37;;;;;;;0.82;0.63;;;21.90;52.10;;;;;;4981629;28;20033;-69
2023/12/16 01:31:03;;;;;;;0.68;0.60;;;21.90;52.20;;;;;;4979585;28;20169;-69
2023/12/16 01:33:29;;;;;;;0.75;0.60;;;21.90;52.20;;;;;;4977851;28;20128;-69
2023/12/16 01:35:55;;;;;;;0.70;0.60;;;21.90;52.20;;;;;;4978755;28;20109;-69
2023/12/16 01:38:21;;;;;;;1.13;0.60;;;21.90;52.20;;;;;;4979911;28;20035;-69
2023/12/16 01:40:47;;;;;;;1.15;0.70;;;21.80;52.20;;;;;;4980442;28;20030;-69
2023/12/16 01:43:12;;;;;;;0.77;0.70;;;21.80;52.20;;;;;;4979385;28;20077;-69
2023/12/16 01:45:38;;;;;;;0.70;0.65;;;21.80;52.20;;;;;;4978000;28;20033;-69
2023/12/16 01:48:06;;;;;;;1.23;0.85;;;21.80;52.20;;;;;;4980375;28;20031;-69
2023/12/16 01:50:35;;;;;;;0.70;0.60;;;21.80;52.20;;;;;;4994293;28;20392;-69
2023/12/16 01:53:03;;;;;;;0.75;0.68;;;21.70;52.20;;;;;;4981180;28;20057;-69
2023/12/16 01:55:29;;;;;;;0.73;0.70;;;21.70;52.20;;;;;;4981338;28;20073;-69
2023/12/16 01:57:55;;;;;;;0.80;0.70;;;21.70;52.20;;;;;;4980298;28;20076;-69
2023/12/16 02:00:21;;;;;;;1.13;0.70;;;21.70;52.30;;;;;;4981078;28;20027;-69
2023/12/16 02:02:48;;;;;;;0.68;0.55;;;21.70;52.30;;;;;;4980192;28;20081;-69
2023/12/16 02:05:14;;;;;;;0.85;0.70;;;21.70;52.30;;;;;;4981825;28;20494;-69
2023/12/16 02:07:39;;;;;;;1.65;0.70;;;21.70;52.30;;;;;;4979064;28;20109;-69
2023/12/16 02:10:05;;;;;;;1.02;0.65;;;21.60;52.30;;;;;;4979466;28;20405;-69
2023/12/16 02:12:34;;;;;;;0.85;0.70;;;21.60;52.30;;;;;;4978905;28;20473;-69
2023/12/16 02:15:00;;;;;;;0.80;0.60;;;21.60;52.30;;;;;;4978943;28;20035;-69
2023/12/16 02:17:26;;;;;;;1.08;0.80;;;21.60;52.30;;;;;;4978411;28;20034;-69
2023/12/16 02:19:54;;;;;;;0.82;0.70;;;21.60;52.30;;;;;;4978273;28;20037;-69
2023/12/16 02:22:20;;;;;;;0.60;0.60;;;21.60;52.30;;;;;;4978319;28;20042;-69
2023/12/16 02:24:47;;;;;;;1.02;0.70;;;21.60;52.40;;;;;;4980096;28;20333;-69
2023/12/16 02:27:12;;;;;;;1.02;0.73;;;21.60;52.40;;;;;;4993651;28;20027;-68
2023/12/16 02:29:38;;;;;;;0.60;0.60;;;21.50;52.30;;;;;;4979900;28;20089;-69
2023/12/16 02:32:05;;;;;;;0.85;0.60;;;21.50;52.40;;;;;;4978647;28;20049;-69
2023/12/16 02:34:30;;;;;;;0.57;0.57;;;21.50;52.40;;;;;;4977507;28;20026;-69
2023/12/16 02:36:56;;;;;;;0.70;0.57;;;21.50;52.40;;;;;;4980050;28;20495;-69
2023/12/16 02:39:21;;;;;;;0.93;0.60;;;21.50;52.40;;;;;;4980782;28;20031;-69
2023/12/16 02:41:47;;;;;;;0.90;0.80;;;21.50;52.40;;;;;;4977496;28;20027;-69
2023/12/16 02:44:13;;;;;;;1.02;0.73;;;21.40;52.40;;;;;;4981030;28;20466;-68
2023/12/16 02:46:38;;;;;;;0.50;0.50;;;21.40;52.40;;;;;;4982347;28;20037;-68
2023/12/16 02:49:04;;;;;;;1.05;0.52;;;21.50;52.50;;;;;;4983158;28;20077;-69
2023/12/16 02:51:29;;;;;;;1.23;0.70;;;21.40;52.50;;;;;;4998484;28;20036;-69
2023/12/16 02:53:56;;;;;;;0.73;0.70;;;21.40;52.50;;;;;;4983477;28;20027;-69
2023/12/16 02:56:21;;;;;;;0.82;0.70;;;21.40;52.50;;;;;;4982869;28;20062;-68
2023/12/16 02:58:49;;;;;;;0.80;0.68;;;21.40;52.50;;;;;;4982210;28;20525;-69
2023/12/16 03:01:15;;;;;;;0.82;0.60;;;21.40;52.50;;;;;;4981472;28;20453;-69
2023/12/16 03:03:41;;;;;;;0.77;0.73;;;21.40;52.50;;;;;;4980404;28;20039;-69
2023/12/16 03:06:07;;;;;;;0.82;0.55;;;21.30;52.50;;;;;;4982451;28;20031;-69
2023/12/16 03:08:34;;;;;;;0.60;0.60;;;21.40;52.60;;;;;;4982026;28;20479;-68
2023/12/16 03:11:01;;;;;;;0.90;0.80;;;21.30;52.50;;;;;;4999854;28;20030;-69
2023/12/16 03:13:26;;;;;;;0.60;0.60;;;21.30;52.50;;;;;;4983969;28;20045;-69
2023/12/16 03:15:52;;;;;;;0.63;0.50;;;21.30;52.50;;;;;;4980734;28;20035;-66
2023/12/16 03:18:18;;;;;;;0.50;0.50;;;21.30;52.60;;;;;;4980528;28;20362;-67
2023/12/16 03:20:43;;;;;;;0.70;0.60;;;21.30;52.60;;;;;;4982050;28;20387;-66
2023/12/16 03:23:09;;;;;;;0.80;0.70;;;21.30;52.60;;;;;;4982681;28;20102;-65
2023/12/16 03:25:37;;;;;;;1.15;0.70;;;21.30;52.60;;;;;;4997249;28;20035;-66
2023/12/16 03:28:06;;;;;;;0.77;0.50;;;21.20;52.60;;;;;;4982104;28;20027;-66
2023/12/16 03:30:31;;;;;;;0.80;0.70;;;21.30;52.60;;;;;;4983722;28;20494;-66
2023/12/16 03:32:57;;;;;;;1.02;0.70;;;21.20;52.60;;;;;;4981112;28;20026;-65
2023/12/16 03:35:22;;;;;;;0.93;0.60;;;21.20;53.10;;;;;;4984452;28;20054;-66
2023/12/16 03:37:48;;;;;;;0.65;0.60;;;21.20;52.70;;;;;;4982373;28;20756;-68
2023/12/16 03:40:14;;;;;;;0.75;0.60;;;21.20;52.70;;;;;;4983101;28;20093;-66
2023/12/16 03:42:39;;;;;;;1.20;0.70;;;21.20;52.70;;;;;;4982341;28;20042;-66
2023/12/16 03:45:06;;;;;;;0.85;0.65;;;21.20;52.70;;;;;;4982244;28;20045;-66
2023/12/16 03:47:32;;;;;;;1.20;0.63;;;21.10;52.70;;;;;;4983131;28;20501;-66
2023/12/16 03:49:58;;;;;;;0.60;0.60;;;21.20;52.70;;;;;;4982434;28;20374;-66
2023/12/16 03:52:24;;;;;;;0.68;0.60;;;21.20;52.80;;;;;;4983075;28;20027;-67
2023/12/16 03:54:49;;;;;;;0.60;0.60;;;21.20;52.80;;;;;;4981453;28;20043;-66
2023/12/16 03:57:15;;;;;;;0.47;0.40;;;21.10;52.80;;;;;;4982656;28;20398;-66
2023/12/16 03:59:41;;;;;;;0.73;0.60;;;21.10;52.80;;;;;;4982518;28;20510;-66
2023/12/16 04:02:07;;;;;;;0.60;0.60;;;21.10;52.80;;;;;;4981480;28;20034;-66
2023/12/16 04:04:33;;;;;;;0.90;0.60;;;21.10;52.80;;;;;;4981780;28;20037;-65
2023/12/16 04:07:00;;;;;;;0.63;0.60;;;21.10;52.80;;;;;;4980320;28;20501;-68
2023/12/16 04:09:29;;;;;;;0.93;0.70;;;21.10;52.80;;;;;;4979880;28;20043;-67
2023/12/16 04:11:55;;;;;;;0.50;0.50;;;21.10;52.80;;;;;;4982760;28;20037;-65
2023/12/16 04:14:21;;;;;;;0.40;0.40;;;21.10;52.90;;;;;;4980193;28;20407;-66
2023/12/16 04:16:46;;;;;;;0.70;0.60;;;21.10;52.80;;;;;;4982391;28;20046;-65
2023/12/16 04:19:12;;;;;;;0.73;0.60;;;21.10;53.00;;;;;;4979385;28;20060;-66
2023/12/16 04:21:38;;;;;;;0.50;0.50;;;21.00;53.40;;;;;;4980522;28;20033;-67
2023/12/16 04:24:05;;;;;;;0.65;0.63;;;21.00;52.90;;;;;;4979414;28;20736;-68
2023/12/16 04:26:30;;;;;;;0.80;0.60;;;21.00;52.90;;;;;;4979808;28;20133;-68
2023/12/16 04:28:56;;;;;;;0.50;0.50;;;21.00;52.90;;;;;;4981024;28;20098;-68
2023/12/16 04:31:22;;;;;;;0.60;0.60;;;21.00;52.90;;;;;;4997128;28;20121;-68
2023/12/16 04:33:49;;;;;;;0.47;0.47;;;21.00;52.90;;;;;;4980518;28;20035;-68
2023/12/16 04:36:16;;;;;;;0.52;0.52;;;21.00;52.90;;;;;;4994134;28;20062;-68
2023/12/16 04:38:42;;;;;;;0.60;0.60;;;21.00;53.00;;;;;;4995738;28;20022;-69
2023/12/16 04:41:11;;;;;;;0.70;0.60;;;21.00;53.00;;;;;;4980817;28;20483;-68
2023/12/16 04:43:37;;;;;;;0.80;0.60;;;21.00;53.00;;;;;;4980347;28;20027;-68
2023/12/16 04:46:03;;;;;;;0.50;0.50;;;21.00;53.00;;;;;;4980363;28;20045;-69
2023/12/16 04:48:29;;;;;;;0.60;0.60;;;21.00;53.00;;;;;;4980085;28;20026;-69
2023/12/16 04:50:54;;;;;;;0.77;0.65;;;21.00;53.00;;;;;;4980762;28;20467;-68
2023/12/16 04:53:20;;;;;;;0.77;0.68;;;21.00;53.00;;;;;;4983677;28;20077;-69
2023/12/16 04:55:45;;;;;;;0.73;0.55;;;20.90;53.00;;;;;;4980922;28;20034;-68
2023/12/16 04:58:11;;;;;;;0.60;0.60;;;20.90;53.00;;;;;;4994325;28;20040;-68
2023/12/16 05:00:36;;;;;;;0.50;0.50;;;20.90;53.00;;;;;;4979899;28;20069;-68
2023/12/16 05:03:03;;;;;;;0.70;0.60;;;20.90;53.00;;;;;;4980395;28;20463;-68
2023/12/16 05:05:29;;;;;;;0.60;0.60;;;20.90;53.30;;;;;;4979216;28;20461;-68
2023/12/16 05:07:54;;;;;;;0.52;0.40;;;20.90;53.00;;;;;;4978733;28;20050;-68
2023/12/16 05:10:20;;;;;;;0.43;0.43;;;20.90;53.00;;;;;;4995705;28;20035;-69
2023/12/16 05:12:46;;;;;;;0.55;0.55;;;20.90;53.10;;;;;;4995646;28;20462;-68
2023/12/16 05:15:11;;;;;;;0.90;0.60;;;20.90;53.10;;;;;;4978240;28;20030;-69
2023/12/16 05:17:37;;;;;;;0.60;0.60;;;20.90;53.10;;;;;;4981956;28;20034;-68
2023/12/16 05:20:03;;;;;;;0.50;0.50;;;20.90;53.10;;;;;;4980089;28;20467;-68
2023/12/16 05:22:33;;;;;;;0.50;0.50;;;20.90;53.10;;;;;;4980573;28;20026;-68
2023/12/16 05:25:01;;;;;;;0.75;0.50;;;20.80;53.60;;;;;;4980464;28;20054;-68
2023/12/16 05:27:27;;;;;;;0.50;0.50;;;20.80;53.10;;;;;;4980469;28;20022;-68
2023/12/16 05:29:53;;;;;;;0.50;0.50;;;20.80;53.10;;;;;;4976671;28;20367;-68
2023/12/16 05:32:18;;;;;;;0.60;0.50;;;20.80;53.20;;;;;;4980706;28;20027;-69
2023/12/16 05:34:44;;;;;;;0.60;0.60;;;20.80;53.20;;;;;;4979391;28;20031;-68
2023/12/16 05:37:09;;;;;;;0.50;0.50;;;20.80;53.20;;;;;;4977378;28;20039;-68
2023/12/16 05:39:35;;;;;;;0.50;0.50;;;20.80;53.70;;;;;;4978979;28;20491;-68
2023/12/16 05:42:01;;;;;;;0.85;0.50;;;20.80;53.30;;;;;;4980561;28;20034;-68
2023/12/16 05:44:26;;;;;;;0.43;0.43;;;20.80;53.30;;;;;;4981835;28;20034;-69
2023/12/16 05:46:52;;;;;;;0.50;0.40;;;20.80;53.30;;;;;;4977910;28;20026;-69
2023/12/16 05:49:18;;;;;;;0.98;0.68;;;20.70;53.30;;;;;;4979795;28;20092;-68
2023/12/16 05:51:43;;;;;;;0.50;0.50;;;20.70;53.40;;;;;;4980380;28;20038;-68
2023/12/16 05:54:09;;;;;;;0.47;0.47;;;20.70;53.40;;;;;;4980111;28;20031;-69
2023/12/16 05:56:34;;;;;;;0.50;0.50;;;20.70;53.40;;;;;;4994510;28;20493;-69
2023/12/16 05:59:00;;;;;;;0.52;0.50;;;20.70;53.50;;;;;;4978416;28;20154;-68
2023/12/16 06:01:26;;;;;;;0.68;0.60;;;20.70;53.50;;;;;;4977408;28;20390;-68
2023/12/16 06:03:52;;;;;;;0.50;0.50;;;20.70;53.50;;;;;;4994014;28;20039;-68
2023/12/16 06:06:18;;;;;;;0.55;0.55;;;20.70;53.60;;;;;;4978805;28;20042;-69
2023/12/16 06:08:44;;;;;;;0.73;0.63;;;20.70;53.60;;;;;;4979107;28;20045;-68
2023/12/16 06:11:13;;;;;;;0.50;0.50;;;20.70;53.60;;;;;;4996498;28;20026;-68
2023/12/16 06:13:41;;;;;;;;;;;20.70;53.70;;;;;;4978804;28;20384;-68
2023/12/16 06:16:07;;;;;;;0.60;0.60;;;20.70;53.70;;;;;;4978391;28;20424;-68
2023/12/16 06:18:34;;;;;;;1.00;0.60;;;20.70;53.70;;;;;;4981540;28;20103;-68
2023/12/16 06:20:59;;;;;;;0.50;0.50;;;20.60;53.70;;;;;;4980325;28;20030;-69
2023/12/16 06:23:26;;;;;;;0.57;0.50;;;20.60;53.70;;;;;;4994048;28;20031;-68
2023/12/16 06:25:52;;;;;;;0.60;0.47;;;20.60;53.70;;;;;;4981955;28;20527;-68
2023/12/16 06:28:18;;;;;;;0.50;0.50;;;20.60;53.70;;;;;;4977766;28;20047;-68
2023/12/16 06:30:44;;;;;;;0.50;0.50;;;20.60;53.70;;;;;;4980129;28;20026;-69
2023/12/16 06:33:09;;;;;;;0.60;0.50;;;20.60;53.80;;;;;;4977745;28;20395;-68
2023/12/16 06:35:35;;;;;;;0.60;0.60;;;20.60;54.30;;;;;;4977741;28;20026;-68
2023/12/16 06:38:01;;;;;;;0.60;0.60;;;20.60;53.80;;;;;;4978972;28;20450;-68
2023/12/16 06:40:31;;;;;;;0.50;0.50;;;20.60;53.80;;;;;;4980557;28;20102;-68
2023/12/16 06:42:57;;;;;;;0.50;0.50;;;20.60;53.80;;;;;;4980630;28;20029;-69
2023/12/16 06:45:23;;;;;;;0.50;0.50;;;20.60;53.80;;;;;;4976784;28;20122;-69
2023/12/16 06:47:49;;;;;;;0.60;0.50;;;20.60;53.80;;;;;;4978496;28;21005;-65
2023/12/16 06:50:15;;;;;;;0.50;0.50;;;20.60;53.90;;;;;;4991370;28;20440;-67
2023/12/16 06:52:41;;;;;;;0.50;0.50;;;20.60;53.90;;;;;;4981336;28;20031;-65
2023/12/16 06:55:07;;;;;;;0.60;0.60;;;20.50;53.90;;;;;;4980179;28;20483;-67
2023/12/16 06:57:33;;;;;;;0.70;0.50;;;20.60;53.90;;;;;;4977490;28;20038;-68
2023/12/16 06:59:58;;;;;;;0.60;0.60;;;20.50;53.90;;;;;;4976972;28;20026;-68
2023/12/16 07:02:25;;;;;;;0.57;0.50;;;20.50;53.90;;;;;;4976440;28;20065;-68
2023/12/16 07:04:51;;;;;;;0.30;0.30;;;20.50;53.90;;;;;;4978464;28;20578;-68
2023/12/16 07:07:16;;;;;;;0.50;0.50;;;20.50;54.00;;;;;;4978530;28;20033;-68
2023/12/16 07:09:42;;;;;;;0.50;0.50;;;20.50;53.90;;;;;;4976716;28;20110;-67
2023/12/16 07:12:07;;;;;;;0.80;0.60;;;20.50;54.00;;;;;;4994214;28;20569;-68
2023/12/16 07:14:34;;;;;;;0.50;0.50;;;20.50;54.00;;;;;;4993840;28;20147;-68
2023/12/16 07:17:00;;;;;;;0.55;0.52;;;20.50;54.00;;;;;;4977326;28;20126;-68
2023/12/16 07:19:27;;;;;;;0.50;0.50;;;20.50;54.00;;;;;;4977121;28;20372;-68
2023/12/16 07:21:53;;;;;;;0.68;0.60;;;20.50;54.00;;;;;;4992701;28;20034;-68
2023/12/16 07:24:19;;;;;;;0.40;0.40;;;20.50;54.00;;;;;;4977087;28;20034;-68
2023/12/16 07:26:44;;;;;;;0.50;0.50;;;20.50;54.00;;;;;;4980719;28;20038;-68
2023/12/16 07:29:10;;;;;;;0.98;0.60;;;20.50;54.00;;;;;;4976911;28;20027;-68
2023/12/16 07:31:36;;;;;;;0.50;0.50;;;20.50;54.10;;;;;;4981171;28;20434;-67
2023/12/16 07:34:01;;;;;;;0.60;0.60;;;20.40;54.10;;;;;;4982326;28;20038;-67
2023/12/16 07:36:27;;;;;;;0.40;0.40;;;20.50;54.10;;;;;;4978443;28;20486;-68
2023/12/16 07:38:55;;;;;;;0.40;0.40;;;20.50;54.10;;;;;;4983299;28;20026;-68
2023/12/16 07:41:21;;;;;;;0.50;0.50;;;20.50;54.10;;;;;;4982015;28;20470;-68
2023/12/16 07:43:47;;;;;;;0.55;0.50;;;20.40;54.10;;;;;;4981037;28;20030;-68
2023/12/16 07:46:13;;;;;;;0.47;0.47;;;20.40;54.10;;;;;;4981919;28;20026;-68
2023/12/16 07:48:39;;;;;;;0.60;0.60;;;20.40;54.10;;;;;;4982577;28;20536;-68
2023/12/16 07:51:05;;;;;;;0.50;0.50;;;20.40;54.10;;;;;;4980306;28;20037;-67
2023/12/16 07:53:30;;;;;;;0.50;0.50;;;20.40;54.10;;;;;;4981685;28;20031;-68
2023/12/16 07:55:56;;;;;;;0.85;0.52;;;20.40;54.10;;;;;;4981890;28;20018;-68
2023/12/16 07:58:22;;;;;;;0.60;0.60;;;20.40;54.10;;;;;;4980929;28;20041;-68
2023/12/16 08:00:48;;;;;;;0.50;0.50;;;20.40;54.10;;;;;;4979714;28;20027;-68
2023/12/16 08:03:13;;;;;;;0.57;0.57;;;20.40;54.10;;;;;;4979987;28;20510;-67
2023/12/16 08:05:42;;;;;;;0.60;0.50;;;20.40;54.10;;;;;;4993281;28;20060;-68
2023/12/16 08:08:08;;;;;;;0.55;0.55;;;20.40;54.10;;;;;;4981838;28;20026;-69
2023/12/16 08:10:34;;;;;;;0.50;0.50;;;20.40;54.10;;;;;;4998521;28;20483;-68
2023/12/16 08:12:59;;;;;;;0.60;0.60;;;20.40;54.10;;;;;;4982461;28;20458;-69
2023/12/16 08:15:25;;;;;;;0.40;0.40;;;20.40;54.10;;;;;;4980970;28;20034;-70
2023/12/16 08:17:50;;;;;;;0.50;0.50;;;20.40;54.20;;;;;;4980898;28;20082;-68
2023/12/16 08:20:16;;;;;;;0.55;0.50;;;20.40;54.20;;;;;;4980507;28;20033;-67
2023/12/16 08:22:42;;;;;;;0.60;0.50;;;20.40;54.20;;;;;;4979410;28;20026;-68
2023/12/16 08:25:08;;;;;;;0.63;0.60;;;20.40;54.20;;;;;;4981402;28;20423;-69
2023/12/16 08:27:33;;;;;;;0.60;0.60;;;20.30;54.10;;;;;;4982074;28;20098;-69
2023/12/16 08:29:59;;;;;;;0.50;0.50;;;20.40;54.20;;;;;;4980765;28;20144;-69
2023/12/16 08:32:25;;;;;;;0.50;0.50;;;20.40;54.20;;;;;;4981070;28;20440;-69
2023/12/16 08:34:50;;;;;;;0.68;0.60;;;20.40;54.20;;;;;;4981178;28;20041;-68
2023/12/16 08:37:16;;;;;;;0.60;0.60;;;20.40;54.20;;;;;;4981754;28;20035;-69
2023/12/16 08:39:41;;;;;;;0.57;0.50;;;20.40;54.20;;;;;;4979317;28;20467;-68
2023/12/16 08:42:07;;;;;;;0.40;0.40;;;20.30;54.20;;;;;;4979535;28;20035;-69
2023/12/16 08:44:34;;;;;;;0.52;0.50;;;20.30;54.20;;;;;;4981065;28;20447;-69
2023/12/16 08:47:00;;;;;;;0.40;0.40;;;20.30;54.20;;;;;;4978847;28;20476;-69
2023/12/16 08:49:25;;;;;;;0.73;0.60;;;20.30;54.20;;;;;;4979808;28;20148;-69
2023/12/16 08:51:52;;;;;;;0.60;0.60;;;20.30;54.20;;;;;;4979717;28;20046;-69
2023/12/16 08:54:17;;;;;;;0.50;0.50;;;20.30;54.20;;;;;;4980874;28;20058;-71
2023/12/16 08:56:43;;;;;;;0.43;0.43;;;20.30;54.20;;;;;;4981133;28;20065;-70
2023/12/16 08:59:09;;;;;;;0.47;0.40;;;20.30;54.20;;;;;;4983519;28;20057;-69
2023/12/16 09:01:35;;;;;;;0.50;0.50;;;20.30;54.20;;;;;;4979343;28;20491;-69
2023/12/16 09:04:00;;;;;;;0.88;0.60;;;20.30;54.20;;;;;;4980204;28;20030;-69
2023/12/16 09:06:26;;;;;;;0.60;0.50;;;20.30;54.20;;;;;;4980005;28;20061;-68
2023/12/16 09:08:52;;;;;;;0.70;0.60;;;20.30;54.20;;;;;;4980345;28;20022;-69
2023/12/16 09:11:17;;;;;;;0.63;0.40;;;20.30;54.20;;;;;;4979797;28;20387;-69
2023/12/16 09:13:43;;;;;;;0.50;0.50;;;20.30;54.20;;;;;;4980780;28;20026;-69
2023/12/16 09:16:09;;;;;;;0.80;0.52;;;20.30;54.20;;;;;;4979567;28;20479;-69
2023/12/16 09:18:38;;;;;;;0.65;0.60;;;20.30;54.20;;;;;;4981729;28;20034;-69
2023/12/16 09:21:04;;;;;;;0.80;0.80;;;20.30;54.20;;;;;;4978569;28;20030;-70
2023/12/16 09:23:29;;;;;;;0.50;0.50;;;20.30;54.20;;;;;;4978445;28;20348;-70
2023/12/16 09:25:55;;;;;;;0.70;0.57;;;20.30;54.20;;;;;;4979677;28;20034;-70
2023/12/16 09:28:20;;;;;;;0.60;0.60;;;20.30;54.20;;;;;;4980753;28;20035;-70
2023/12/16 09:30:46;;;;;;;0.93;0.70;;;20.30;54.20;;;;;;4981628;28;20030;-70
2023/12/16 09:33:12;;;;;;;0.50;0.50;;;20.30;54.20;;;;;;4979003;28;20074;-70
2023/12/16 09:35:37;;;;;;;0.85;0.60;;;20.30;54.20;;;;;;4981445;28;20478;-70
2023/12/16 09:38:03;;;;;;;0.90;0.63;;;20.30;54.20;;;;;;4979549;28;20391;-68
2023/12/16 09:40:29;;;;;;;0.60;0.60;;;20.30;54.20;;;;;;4994905;28;20037;-68
2023/12/16 09:43:04;;;;;;;0.85;0.50;;;20.30;54.20;;;;;;4980182;28;20027;-69
2023/12/16 09:45:30;;;;;;;0.85;0.70;;;20.30;54.20;;;;;;4980524;28;20459;-69
2023/12/16 09:47:55;;;;;;;0.60;0.60;;;20.20;54.20;;;;;;4981343;28;20418;-67
2023/12/16 09:50:21;;;;;;;0.52;0.52;;;20.30;54.20;;;;;;4976641;28;20173;-70
2023/12/16 09:52:47;;;;;;;0.63;0.60;;;20.30;54.20;;;;;;4979668;28;20030;-68
2023/12/16 09:55:13;;;;;;;0.77;0.60;;;20.30;54.20;;;;;;4979924;28;20030;-68
2023/12/16 09:57:41;;;;;;;0.93;0.68;;;20.30;54.20;;;;;;4980896;28;20057;-68
2023/12/16 10:00:07;;;;;;;0.75;0.70;;;20.20;54.20;;;;;;4979154;28;20027;-68
2023/12/16 10:02:33;;;;;;;1.45;0.73;;;20.20;54.20;;;;;;4979778;28;20966;-68
2023/12/16 10:05:00;;;;;;;1.35;0.80;;;20.30;54.20;;;;;;4977597;28;20173;-68
2023/12/16 10:07:26;;;;;;;1.40;0.80;;;20.30;54.20;;;;;;4978166;28;20034;-68
2023/12/16 10:09:52;;;;;;;0.95;0.80;;;20.30;54.20;;;;;;4977991;28;20026;-68
2023/12/16 10:12:21;;;;;;;1.25;0.70;;;20.30;54.20;;;;;;4977447;28;20157;-69
2023/12/16 10:14:48;;;;;;;0.88;0.70;;;20.20;54.70;;;;;;4993663;28;20097;-68
2023/12/16 10:17:17;;;;;;;0.75;0.60;;;20.30;54.20;;;;;;4978059;28;20058;-68
2023/12/16 10:19:44;;;;;;;;;;;20.30;54.30;;;;;;4995832;28;20517;-69
2023/12/16 10:22:12;;;;;;;0.70;0.60;;;20.30;54.20;;;;;;4976835;28;19910;-68
2023/12/16 10:24:37;;;;;;;0.70;0.70;;;20.30;54.20;;;;;;4975993;28;20602;-69
2023/12/16 10:27:09;;;;;;;1.15;0.70;;;20.30;54.30;;;;;;4992065;28;20056;-68
2023/12/16 10:29:35;;;;;;;0.70;0.60;;;20.30;54.20;;;;;;4979842;28;20027;-66
2023/12/16 10:32:01;;;;;;;0.90;0.70;;;20.20;54.20;;;;;;4977784;28;20026;-68
2023/12/16 10:34:30;;;;;;;0.73;0.73;;;20.20;54.20;;;;;;4978472;28;20109;-67
2023/12/16 10:37:08;;;;;;;1.23;0.80;;;20.20;54.20;;;;;;4978643;28;20495;-66
2023/12/16 10:39:35;;;;;;;0.90;0.80;;;20.20;54.30;;;;;;4976347;28;20122;-67
2023/12/16 10:42:01;;;;;;;1.27;0.80;;;20.20;54.30;;;;;;4975803;28;20550;-66
2023/12/16 10:44:27;;;;;;;0.90;0.70;;;20.20;54.30;;;;;;4977151;28;20467;-68
2023/12/16 10:46:54;;;;;;;1.13;0.80;;;20.20;54.30;;;;;;4976996;28;20092;-66
2023/12/16 10:49:30;;;;;;;0.60;0.60;;;20.20;54.80;;;;;;4977874;28;20019;-70
2023/12/16 10:52:10;;;;;;;0.63;0.57;;;20.20;54.30;;;;;;4991905;28;20020;-70
2023/12/16 10:54:47;;;;;;;7.35;1.02;;;20.20;54.30;;;;;;4979358;28;20031;-70
2023/12/16 10:57:49;;;;;;;1.58;0.90;;;20.20;54.30;;;;;;4993121;28;20038;-69
2023/12/16 11:00:22;;;;;;;0.70;0.60;;;20.20;54.30;;;;;;4969611;28;20118;-70
2023/12/16 11:03:07;;;;;;;1.42;0.90;;;20.20;54.30;;;;;;4979153;28;20038;-70
2023/12/16 11:05:40;;;;;;;1.00;0.70;;;20.20;54.30;;;;;;4979130;28;20034;-70
2023/12/16 11:08:07;;;;;;;0.85;0.80;;;20.20;54.40;;;;;;4981066;28;20105;-70
2023/12/16 11:10:32;;;;;;;1.20;0.70;;;20.20;54.40;;;;;;4979475;28;20030;-70
2023/12/16 11:13:03;;;;;;;0.60;0.60;;;20.20;54.30;;;;;;4982966;28;20093;-70
2023/12/16 11:15:33;;;;;;;1.13;0.80;;;20.20;54.40;;;;;;4998201;28;20169;-70
2023/12/16 11:18:09;;;;;;;0.63;0.63;;;20.20;54.30;;;;;;4981225;28;20035;-69
2023/12/16 11:20:42;;;;;;;1.10;0.80;;;20.20;54.30;;;;;;4981676;28;20042;-70
2023/12/16 11:23:10;;;;;;;1.00;0.80;;;20.20;54.30;;;;;;4983872;28;20941;-69
2023/12/16 11:25:36;;;;;;;1.13;0.75;;;20.30;54.40;;;;;;4981468;28;20545;-69
2023/12/16 11:28:03;;;;;;;1.13;0.80;;;20.20;54.40;;;;;;4983529;28;20443;-70
2023/12/16 11:30:29;;;;;;;1.00;0.75;;;20.20;54.40;;;;;;4981390;28;20431;-70
2023/12/16 11:32:56;;;;;;;1.00;0.80;;;20.30;54.40;;;;;;4980846;28;20023;-70
2023/12/16 11:35:42;;;;;;;0.73;0.70;;;20.30;54.40;;;;;;4982568;28;20030;-69
2023/12/16 11:38:08;;;;;;;1.00;0.80;;;20.30;54.40;;;;;;4981838;28;20031;-68
2023/12/16 11:40:48;;;;;;;0.85;0.60;;;20.30;54.40;;;;;;4979718;28;20114;-68
2023/12/16 11:43:14;;;;;;;1.55;0.88;;;20.30;54.40;;;;;;4981358;28;20081;-68
2023/12/16 11:45:48;;;;;;;1.00;0.63;;;20.30;54.40;;;;;;4980526;28;20030;-69
2023/12/16 11:48:16;;;;;;;1.10;0.77;;;20.30;54.40;;;;;;4983066;28;20027;-68
2023/12/16 11:50:45;;;;;;;1.05;0.73;;;20.30;54.40;;;;;;4997537;28;20023;-69
2023/12/16 11:53:13;;;;;;;1.05;0.70;;;20.30;54.30;;;;;;4981924;28;20022;-69
2023/12/16 11:55:39;;;;;;;0.95;0.60;;;20.30;54.30;;;;;;4980044;28;20537;-69
2023/12/16 11:58:05;;;;;;;1.00;0.80;;;20.30;54.30;;;;;;4982038;28;20408;-66
2023/12/16 12:00:31;;;;;;;1.85;0.80;;;20.30;54.30;;;;;;4979970;28;20121;-66
2023/12/16 12:03:00;;;;;;;1.10;0.70;;;20.30;54.30;;;;;;4982272;28;20123;-65
2023/12/16 12:05:26;;;;;;;1.70;0.80;;;20.30;54.30;;;;;;4979896;28;20019;-66
2023/12/16 12:07:51;;;;;;;1.00;0.90;;;20.30;54.30;;;;;;4980805;28;20041;-68
2023/12/16 12:10:17;;;;;;;0.90;0.82;;;20.40;54.30;;;;;;4980604;28;20030;-67
2023/12/16 12:12:43;;;;;;;1.08;0.85;;;20.30;54.30;;;;;;4981688;28;20073;-67
2023/12/16 12:15:09;;;;;;;0.85;0.73;;;20.30;54.30;;;;;;4985559;28;20562;-67
2023/12/16 12:17:36;;;;;;;0.95;0.80;;;20.30;54.30;;;;;;4981224;28;20074;-67
2023/12/16 12:20:02;;;;;;;0.95;0.80;;;20.30;54.30;;;;;;4981589;28;20106;-67
2023/12/16 12:22:28;;;;;;;0.98;0.80;;;20.30;54.30;;;;;;4980187;28;20065;-66
2023/12/16 12:24:54;;;;;;;0.80;0.70;;;20.40;54.30;;;;;;4979364;28;20022;-67
2023/12/16 12:27:20;;;;;;;1.15;0.85;;;20.40;54.30;;;;;;4996666;28;20023;-66
2023/12/16 12:29:59;;;;;;;0.80;0.70;;;20.30;54.20;;;;;;4980635;28;20537;-66
2023/12/16 12:32:28;;;;;;;0.93;0.80;;;20.40;54.30;;;;;;4982014;28;20085;-66
2023/12/16 12:35:05;;;;;;;1.00;0.90;;;20.40;54.30;;;;;;4982938;28;20035;-66
2023/12/16 12:37:42;;;;;;;1.85;0.85;;;20.40;54.30;;;;;;4979957;28;20676;-66
2023/12/16 12:40:14;;;;;;;0.75;0.65;;;20.40;54.30;;;;;;4978530;28;20037;-67
2023/12/16 12:42:54;;;;;;;1.02;0.80;;;20.40;54.30;;;;;;4979240;28;20026;-66
2023/12/16 12:45:30;;;;;;;1.20;0.80;;;20.40;54.30;;;;;;4980490;28;20030;-66